SIR weather

Sion Airport
Sion, Canton of Valais, Switzerland

Public forecast

Using degrees Celsius for public forecast. Weather courtesy of forecast.io.

METAR (pilot weather report)

Retrieved 2019/07/21 07:20 UTC (26 minutes ago):

LSGS 210720Z VRB02KT 9999 FEW120 22/17 Q1023

TAF (pilot weather forecast)

Forecast is more than 12 hours old.

Closest forecast is Payerne Air Base, 41.1 nm (76.2 km) NNW. Retrieved 2019/07/20 17:00 UTC (15 hours ago):

TAF LSMP 201625Z 2017/2123 22009KT CAVOK BECMG 2017/2019 9999 FEW060 SCT100